Time;durP1;ratioP1;P1;durP2;ratioP2;P2;SDS_P1;SDS_P2;PMS_P1;PMS_P2;Temp;Humidity;BMP_temperature;BMP_pressure;BME280_temperature;BME280_humidity;BME280_pressure;Samples;Min_cycle;Max_cycle;Signal;HPM_P1;HPM_P2
2023/05/09 00:01:34;;;;;;;6.35;4.28;;;8.00;75.30;;;;;;5110597;28;20065;-58
2023/05/09 00:04:00;;;;;;;6.82;4.28;;;8.00;74.90;;;;;;5099816;28;20099;-58
2023/05/09 00:06:26;;;;;;;7.07;4.20;;;7.90;75.00;;;;;;5087769;28;20300;-58
2023/05/09 00:08:55;;;;;;;8.30;4.50;;;7.90;74.90;;;;;;5108605;28;20027;-58
2023/05/09 00:11:21;;;;;;;8.43;4.95;;;7.90;75.90;;;;;;5090774;28;20032;-58
2023/05/09 00:13:47;;;;;;;9.80;4.80;;;7.90;76.00;;;;;;5108293;28;20080;-58
2023/05/09 00:16:14;;;;;;;7.45;4.60;;;7.90;76.20;;;;;;5091226;28;20031;-57
2023/05/09 00:18:41;;;;;;;7.32;4.25;;;7.90;75.20;;;;;;5107020;28;20110;-58
2023/05/09 00:21:07;;;;;;;6.00;4.20;;;7.80;75.70;;;;;;5090820;28;20056;-60
2023/05/09 00:23:33;;;;;;;8.20;4.95;;;7.80;75.90;;;;;;5108454;28;20080;-58
2023/05/09 00:25:59;;;;;;;7.18;5.07;;;7.70;76.60;;;;;;5099527;28;20056;-58
2023/05/09 00:28:25;;;;;;;6.95;4.68;;;7.70;77.00;;;;;;5107998;28;20024;-58
2023/05/09 00:30:50;;;;;;;9.75;4.85;;;7.80;76.90;;;;;;5109364;28;20023;-58
2023/05/09 00:33:16;;;;;;;9.38;4.18;;;7.70;76.20;;;;;;5093418;28;20020;-58
2023/05/09 00:35:41;;;;;;;6.90;4.28;;;7.70;76.10;;;;;;5110700;28;20094;-58
2023/05/09 00:38:07;;;;;;;6.53;4.68;;;7.60;77.80;;;;;;5091843;28;20122;-58
2023/05/09 00:40:32;;;;;;;6.72;4.13;;;7.60;79.20;;;;;;5110908;28;20042;-58
2023/05/09 00:42:58;;;;;;;6.65;4.35;;;7.50;78.30;;;;;;5088833;28;20677;-59
2023/05/09 00:45:24;;;;;;;7.90;4.60;;;7.50;78.50;;;;;;5110008;28;20042;-58
2023/05/09 00:47:50;;;;;;;7.38;4.80;;;7.50;78.50;;;;;;5089080;28;20036;-59
2023/05/09 00:50:15;;;;;;;6.70;4.05;;;7.40;80.60;;;;;;5109554;28;20043;-58
2023/05/09 00:52:41;;;;;;;5.13;4.30;;;7.40;80.00;;;;;;5088873;28;20020;-59
2023/05/09 00:55:07;;;;;;;6.47;4.60;;;7.40;80.90;;;;;;5108307;28;20032;-58
2023/05/09 00:57:33;;;;;;;5.85;4.15;;;7.40;80.30;;;;;;5096405;28;20026;-58
2023/05/09 00:59:59;;;;;;;12.45;5.20;;;7.30;81.30;;;;;;5090534;28;20033;-57
2023/05/09 01:02:26;;;;;;;7.38;4.00;;;7.30;82.10;;;;;;5106946;28;20026;-59
2023/05/09 01:04:52;;;;;;;6.72;4.32;;;7.30;81.90;;;;;;5090234;28;20086;-57
2023/05/09 01:07:35;;;;;;;7.55;4.47;;;7.20;82.10;;;;;;5102434;28;20436;-58
2023/05/09 01:10:20;;;;;;;6.88;3.90;;;7.20;82.20;;;;;;5069817;28;20059;-58
2023/05/09 01:13:21;;;;;;;7.57;5.00;;;7.20;83.70;;;;;;5089880;28;20024;-58
2023/05/09 01:15:57;;;;;;;7.50;4.60;;;7.10;82.70;;;;;;5017384;28;20477;-58
2023/05/09 01:18:31;;;;;;;6.43;4.13;;;7.10;83.80;;;;;;5091018;28;20027;-58
2023/05/09 01:21:02;;;;;;;5.63;4.05;;;7.00;83.60;;;;;;5069430;28;20476;-58
2023/05/09 01:23:31;;;;;;;6.28;4.20;;;7.00;84.40;;;;;;5080041;28;20423;-59
2023/05/09 01:26:11;;;;;;;6.63;4.20;;;7.00;84.60;;;;;;5097197;28;20046;-58
2023/05/09 01:29:08;;;;;;;7.20;4.72;;;7.00;84.50;;;;;;5085875;28;20031;-59
2023/05/09 01:31:36;;;;;;;;;;;7.00;84.30;;;;;;5069865;28;20025;-58
2023/05/09 01:34:04;;;;;;;5.65;4.32;;;6.90;84.10;;;;;;5109901;28;19994;-58
2023/05/09 01:36:35;;;;;;;8.73;4.40;;;6.90;82.60;;;;;;5088168;28;20032;-58
2023/05/09 01:39:01;;;;;;;6.18;4.38;;;6.90;83.00;;;;;;5109496;28;20023;-58
2023/05/09 01:41:30;;;;;;;5.75;3.90;;;6.80;82.60;;;;;;5087635;28;20063;-58
2023/05/09 01:43:59;;;;;;;6.65;3.85;;;6.80;83.70;;;;;;5101485;28;20276;-58
2023/05/09 01:46:27;;;;;;;6.60;3.50;;;6.80;83.60;;;;;;5092374;28;20063;-58
2023/05/09 01:48:53;;;;;;;6.32;4.50;;;6.80;83.60;;;;;;5105402;28;20023;-58
2023/05/09 01:51:20;;;;;;;6.40;4.40;;;6.70;84.60;;;;;;5109037;28;20070;-58
2023/05/09 01:53:48;;;;;;;7.00;4.63;;;6.80;85.40;;;;;;5089155;28;20499;-58
2023/05/09 01:56:14;;;;;;;8.27;4.90;;;6.80;84.80;;;;;;5109118;28;20035;-59
2023/05/09 01:58:41;;;;;;;8.40;4.35;;;6.70;85.60;;;;;;5088644;28;20220;-58
2023/05/09 02:01:07;;;;;;;9.00;4.40;;;6.70;85.10;;;;;;5108957;28;20111;-58
2023/05/09 02:03:34;;;;;;;8.90;4.50;;;6.70;85.50;;;;;;5087155;28;20102;-58
2023/05/09 02:06:03;;;;;;;6.78;4.22;;;6.70;85.40;;;;;;5093338;28;20084;-58
2023/05/09 02:08:29;;;;;;;8.70;4.50;;;6.60;86.50;;;;;;5108063;28;20023;-58
2023/05/09 02:10:55;;;;;;;5.53;3.75;;;6.60;86.20;;;;;;5107485;28;20132;-59
2023/05/09 02:13:21;;;;;;;6.88;4.53;;;6.60;85.80;;;;;;5088905;28;20518;-58
2023/05/09 02:15:47;;;;;;;7.20;4.10;;;6.60;85.70;;;;;;5087017;28;20020;-58
2023/05/09 02:18:12;;;;;;;6.68;4.55;;;6.50;85.80;;;;;;5108012;28;20391;-58
2023/05/09 02:20:38;;;;;;;5.75;3.80;;;6.50;84.80;;;;;;5087022;28;20032;-58
2023/05/09 02:23:04;;;;;;;8.15;4.43;;;6.50;84.80;;;;;;5107924;28;20154;-58
2023/05/09 02:25:31;;;;;;;7.22;4.35;;;6.50;84.30;;;;;;5091956;28;20046;-59
2023/05/09 02:27:58;;;;;;;8.40;4.68;;;6.40;83.70;;;;;;5108164;28;20039;-58
2023/05/09 02:30:25;;;;;;;6.82;4.65;;;6.40;85.70;;;;;;5086698;28;20559;-58
2023/05/09 02:32:55;;;;;;;6.75;4.05;;;6.40;85.70;;;;;;5107915;28;20537;-58
2023/05/09 02:35:23;;;;;;;6.28;4.13;;;6.30;83.80;;;;;;5081507;28;20035;-58
2023/05/09 02:37:51;;;;;;;7.72;3.85;;;6.30;84.80;;;;;;5107868;28;20055;-58
2023/05/09 02:40:17;;;;;;;6.40;3.78;;;6.20;85.10;;;;;;5085963;28;20055;-58
2023/05/09 02:42:43;;;;;;;6.97;3.88;;;6.20;84.70;;;;;;5105685;28;20031;-58
2023/05/09 02:45:12;;;;;;;9.38;4.35;;;6.20;85.10;;;;;;5088511;28;20034;-58
2023/05/09 02:47:38;;;;;;;5.85;4.10;;;6.10;86.00;;;;;;5106131;28;20487;-59
2023/05/09 02:50:04;;;;;;;4.80;3.30;;;6.10;85.10;;;;;;5088380;28;20085;-58
2023/05/09 02:52:30;;;;;;;5.63;3.38;;;6.00;86.00;;;;;;5105436;28;20052;-58
2023/05/09 02:54:55;;;;;;;5.32;3.65;;;6.00;85.70;;;;;;5088292;28;20145;-59
2023/05/09 02:57:21;;;;;;;7.80;4.10;;;5.90;85.10;;;;;;5104369;28;20026;-58
2023/05/09 02:59:46;;;;;;;7.90;3.35;;;5.90;89.10;;;;;;5088194;28;20035;-58
2023/05/09 03:02:12;;;;;;;6.13;3.08;;;5.90;89.00;;;;;;5105413;28;20034;-57
2023/05/09 03:04:38;;;;;;;4.53;2.92;;;5.80;88.20;;;;;;5106216;28;20024;-58
2023/05/09 03:07:03;;;;;;;5.55;3.55;;;5.70;89.10;;;;;;5085406;28;20035;-59
2023/05/09 03:09:29;;;;;;;5.03;3.20;;;5.70;90.50;;;;;;5108444;28;20024;-61
2023/05/09 03:11:55;;;;;;;6.03;3.55;;;5.60;89.60;;;;;;5086289;28;20025;-57
2023/05/09 03:14:21;;;;;;;6.25;3.72;;;5.60;90.30;;;;;;5087912;28;20407;-58
2023/05/09 03:16:47;;;;;;;10.13;3.75;;;5.50;90.80;;;;;;5089444;28;20108;-58
2023/05/09 03:19:12;;;;;;;7.47;3.80;;;5.50;92.30;;;;;;5107121;28;20027;-57
2023/05/09 03:21:38;;;;;;;7.55;3.72;;;5.50;92.30;;;;;;5087380;28;20039;-57
2023/05/09 03:24:04;;;;;;;6.07;3.75;;;5.50;92.40;;;;;;5111700;28;20027;-59
2023/05/09 03:26:29;;;;;;;5.90;3.97;;;5.50;92.10;;;;;;5090511;28;20458;-58
2023/05/09 03:28:55;;;;;;;5.75;3.35;;;5.50;92.40;;;;;;5111381;28;20024;-58
2023/05/09 03:31:20;;;;;;;5.88;3.75;;;5.40;92.00;;;;;;5100989;28;20111;-58
2023/05/09 03:33:46;;;;;;;6.13;4.18;;;5.40;91.50;;;;;;5092240;28;20085;-58
2023/05/09 03:36:11;;;;;;;5.68;3.35;;;5.40;92.50;;;;;;5109329;28;20020;-58
2023/05/09 03:38:37;;;;;;;7.22;3.88;;;5.40;91.40;;;;;;5092320;28;20020;-58
2023/05/09 03:41:03;;;;;;;6.18;3.88;;;5.40;92.90;;;;;;5108928;27;20036;-58
2023/05/09 03:43:28;;;;;;;6.18;3.60;;;5.50;92.70;;;;;;5092005;28;20024;-58
2023/05/09 03:45:54;;;;;;;6.32;3.47;;;5.50;92.00;;;;;;5093385;28;20093;-58
2023/05/09 03:48:19;;;;;;;6.43;3.85;;;5.50;92.20;;;;;;5109737;28;20034;-58
2023/05/09 03:50:45;;;;;;;6.80;3.85;;;5.60;92.20;;;;;;5090065;28;20040;-57
2023/05/09 03:53:10;;;;;;;8.00;4.18;;;5.60;91.60;;;;;;5105554;28;20395;-59
2023/05/09 03:55:35;;;;;;;8.30;4.35;;;5.70;92.00;;;;;;5071147;28;20024;-58
2023/05/09 03:58:02;;;;;;;8.63;4.40;;;5.70;92.00;;;;;;5110302;28;20036;-58
2023/05/09 04:00:28;;;;;;;6.60;4.05;;;5.80;91.00;;;;;;5111702;28;20522;-57
2023/05/09 04:02:53;;;;;;;12.15;4.82;;;5.80;90.60;;;;;;5091873;28;20036;-58
2023/05/09 04:05:19;;;;;;;6.35;3.88;;;5.90;90.70;;;;;;5089635;28;20036;-56
2023/05/09 04:07:45;;;;;;;12.73;4.15;;;6.10;90.20;;;;;;5110075;28;20020;-58
2023/05/09 04:10:10;;;;;;;9.05;3.92;;;6.70;87.30;;;;;;5089844;28;20028;-59
2023/05/09 04:12:36;;;;;;;7.68;3.50;;;7.70;80.10;;;;;;5110747;28;20034;-57
2023/05/09 04:15:02;;;;;;;5.75;3.55;;;8.60;71.80;;;;;;5089994;28;20434;-60
2023/05/09 04:17:27;;;;;;;6.53;3.80;;;9.60;68.20;;;;;;5110546;28;20759;-60
2023/05/09 04:19:53;;;;;;;7.50;3.65;;;10.40;63.00;;;;;;5088749;28;20035;-59
2023/05/09 04:22:18;;;;;;;10.45;4.57;;;11.10;59.10;;;;;;5090954;28;20028;-59
2023/05/09 04:24:44;;;;;;;7.07;3.53;;;11.60;50.00;;;;;;5094241;28;20054;-59
2023/05/09 04:27:09;;;;;;;8.82;3.78;;;12.20;49.80;;;;;;5111338;28;20031;-60
2023/05/09 04:29:35;;;;;;;6.18;3.55;;;12.70;44.00;;;;;;5089226;28;20028;-59
2023/05/09 04:32:01;;;;;;;6.82;3.90;;;12.90;43.00;;;;;;5110134;28;20028;-59
2023/05/09 04:34:28;;;;;;;6.53;3.72;;;13.50;39.80;;;;;;5089605;28;20044;-60
2023/05/09 04:36:54;;;;;;;5.50;3.22;;;13.70;38.50;;;;;;5110230;28;20027;-60
2023/05/09 04:39:19;;;;;;;7.00;4.03;;;14.20;36.50;;;;;;5098902;28;20506;-60
2023/05/09 04:41:46;;;;;;;6.43;3.25;;;14.40;31.60;;;;;;5090641;28;20032;-60
2023/05/09 04:44:12;;;;;;;5.85;3.67;;;14.50;34.80;;;;;;5108218;28;20024;-60
2023/05/09 04:46:38;;;;;;;5.97;3.10;;;14.60;29.00;;;;;;5090619;28;20107;-60
2023/05/09 04:49:04;;;;;;;7.50;3.38;;;14.90;29.00;;;;;;5096909;28;20114;-60
2023/05/09 04:51:29;;;;;;;5.35;3.20;;;15.40;30.60;;;;;;5090872;28;20040;-60
2023/05/09 04:53:54;;;;;;;5.10;3.30;;;15.80;26.10;;;;;;5107649;28;20036;-60
2023/05/09 04:56:20;;;;;;;3.72;2.75;;;16.30;26.80;;;;;;5110694;28;20132;-60
2023/05/09 04:58:46;;;;;;;6.07;3.22;;;16.80;26.50;;;;;;5094783;28;20694;-60
2023/05/09 05:01:11;;;;;;;4.93;3.20;;;17.50;23.60;;;;;;5110571;28;20083;-60
2023/05/09 05:03:37;;;;;;;5.95;3.47;;;17.60;23.10;;;;;;5088548;28;20035;-60
2023/05/09 05:06:02;;;;;;;7.65;3.40;;;17.80;20.70;;;;;;5094773;28;20028;-60
2023/05/09 05:08:28;;;;;;;7.82;3.35;;;18.10;16.30;;;;;;5108782;28;20092;-60
2023/05/09 05:10:53;;;;;;;6.15;3.70;;;18.00;19.70;;;;;;5108173;28;20084;-60
2023/05/09 05:13:20;;;;;;;5.82;3.22;;;18.20;16.90;;;;;;5092521;28;20023;-60
2023/05/09 05:15:45;;;;;;;4.82;3.42;;;18.50;18.60;;;;;;5107328;28;20224;-60
2023/05/09 05:18:11;;;;;;;6.18;3.72;;;18.90;17.50;;;;;;5089757;28;20275;-60
2023/05/09 05:20:39;;;;;;;3.88;3.03;;;19.20;13.80;;;;;;5107001;28;20189;-60
2023/05/09 05:23:04;;;;;;;4.47;3.40;;;19.10;15.60;;;;;;5089690;28;20036;-60
2023/05/09 05:25:30;;;;;;;5.30;3.17;;;19.20;16.00;;;;;;5107226;28;20039;-60
2023/05/09 05:27:55;;;;;;;6.00;2.92;;;19.70;14.60;;;;;;5090961;28;20031;-60
2023/05/09 05:30:21;;;;;;;4.45;3.25;;;20.30;15.30;;;;;;5107781;28;20035;-60
2023/05/09 05:32:47;;;;;;;5.15;3.28;;;21.00;14.40;;;;;;5110729;28;20035;-60
2023/05/09 05:35:12;;;;;;;5.57;3.85;;;21.60;8.40;;;;;;5094446;28;20062;-60
2023/05/09 05:37:41;;;;;;;4.97;3.40;;;20.90;11.20;;;;;;5110709;28;20024;-60
2023/05/09 05:40:07;;;;;;;5.70;3.28;;;21.00;8.50;;;;;;5093704;28;20111;-59
2023/05/09 05:42:33;;;;;;;7.57;3.60;;;21.30;7.70;;;;;;5110463;28;20035;-60
2023/05/09 05:45:05;;;;;;;4.85;3.55;;;20.80;10.10;;;;;;5091537;28;20510;-59
2023/05/09 05:47:34;;;;;;;6.93;2.88;;;20.90;7.50;;;;;;5110470;28;20251;-60
2023/05/09 05:50:01;;;;;;;5.78;3.20;;;21.80;6.70;;;;;;5092342;28;20399;-60
2023/05/09 05:52:26;;;;;;;3.08;2.70;;;21.70;7.80;;;;;;5110618;28;20065;-60
2023/05/09 05:54:53;;;;;;;5.03;2.95;;;21.40;6.10;;;;;;5091261;28;20439;-59
2023/05/09 05:57:19;;;;;;;5.32;3.50;;;21.70;8.10;;;;;;5110248;28;20027;-59
2023/05/09 05:59:49;;;;;;;8.43;3.38;;;22.70;7.30;;;;;;5089947;28;20152;-60
2023/05/09 06:02:18;;;;;;;6.40;3.03;;;22.80;4.50;;;;;;5109976;27;20119;-60
2023/05/09 06:04:44;;;;;;;3.85;2.53;;;22.90;4.80;;;;;;5087885;28;20411;-60
2023/05/09 06:07:11;;;;;;;4.80;3.00;;;23.80;4.70;;;;;;5086531;28;20024;-60
2023/05/09 06:09:37;;;;;;;6.38;3.22;;;23.70;1.80;;;;;;5107504;28;20059;-59
2023/05/09 06:12:02;;;;;;;4.18;3.00;;;22.10;4.40;;;;;;5109960;28;20483;-60
2023/05/09 06:14:28;;;;;;;2.80;2.45;;;22.60;4.30;;;;;;5089937;28;20028;-60
2023/05/09 06:16:53;;;;;;;3.63;2.53;;;23.90;3.70;;;;;;5106113;28;20024;-59
2023/05/09 06:19:19;;;;;;;3.38;2.97;;;25.00;3.00;;;;;;5089783;28;20487;-60
2023/05/09 06:21:44;;;;;;;5.95;2.92;;;24.00;1.30;;;;;;5088434;28;20037;-60
2023/05/09 06:24:10;;;;;;;4.85;3.38;;;23.50;1.00;;;;;;5108930;28;20376;-60
2023/05/09 06:26:36;;;;;;;6.50;3.58;;;24.00;1.00;;;;;;5088219;28;20070;-60
2023/05/09 06:29:02;;;;;;;3.70;2.70;;;23.90;1.00;;;;;;5108715;28;20411;-60
2023/05/09 06:31:28;;;;;;;3.88;2.75;;;23.70;1.70;;;;;;5088017;28;20032;-60
2023/05/09 06:33:55;;;;;;;5.30;3.00;;;23.90;1.00;;;;;;5108839;28;20525;-60
2023/05/09 06:36:20;;;;;;;4.53;3.03;;;24.00;1.00;;;;;;5087845;28;20106;-60
2023/05/09 06:38:46;;;;;;;3.88;2.97;;;24.20;1.00;;;;;;5108737;28;20035;-60
2023/05/09 06:41:11;;;;;;;7.00;2.85;;;25.00;1.00;;;;;;5087699;28;20052;-60
2023/05/09 06:43:37;;;;;;;4.20;2.38;;;25.70;1.00;;;;;;5107201;28;20034;-60
2023/05/09 06:46:02;;;;;;;3.30;2.47;;;25.50;1.00;;;;;;5087623;28;20030;-60
2023/05/09 06:48:28;;;;;;;5.18;2.60;;;25.50;1.00;;;;;;5108562;28;20027;-59
2023/05/09 06:50:53;;;;;;;4.72;2.95;;;24.60;1.00;;;;;;5087442;28;20040;-59
2023/05/09 06:53:19;;;;;;;3.70;2.63;;;24.80;1.00;;;;;;5108299;28;20036;-60
2023/05/09 06:55:44;;;;;;;4.82;2.90;;;24.10;1.00;;;;;;5097515;28;20051;-60
2023/05/09 06:58:10;;;;;;;3.92;2.55;;;23.50;1.00;;;;;;5089310;28;20024;-59
2023/05/09 07:00:36;;;;;;;7.90;2.75;;;23.80;1.00;;;;;;5106549;28;20047;-60
2023/05/09 07:03:02;;;;;;;5.80;2.30;;;23.00;1.00;;;;;;5089338;28;20036;-59
2023/05/09 07:05:27;;;;;;;2.95;2.33;;;23.70;1.00;;;;;;5094691;28;20499;-60
2023/05/09 07:07:53;;;;;;;4.03;2.35;;;24.00;1.00;;;;;;5108450;28;20041;-59
2023/05/09 07:10:21;;;;;;;3.90;2.40;;;24.90;1.00;;;;;;5094024;28;20470;-59
2023/05/09 07:12:46;;;;;;;5.78;2.60;;;23.80;1.00;;;;;;5108955;28;20092;-60
2023/05/09 07:15:12;;;;;;;4.05;2.60;;;22.00;1.00;;;;;;5093127;28;20788;-59
2023/05/09 07:17:38;;;;;;;5.75;2.65;;;22.00;1.00;;;;;;5109024;28;20028;-60
2023/05/09 07:20:04;;;;;;;3.40;2.38;;;22.00;1.00;;;;;;5091577;28;20036;-60
2023/05/09 07:22:30;;;;;;;3.65;2.30;;;22.20;1.00;;;;;;5109006;28;20145;-60
2023/05/09 07:24:55;;;;;;;3.97;2.50;;;22.60;1.00;;;;;;5090454;28;20107;-60
2023/05/09 07:27:21;;;;;;;2.80;2.28;;;22.30;1.00;;;;;;5108948;28;20027;-60
2023/05/09 07:29:48;;;;;;;6.93;2.30;;;22.30;1.00;;;;;;5089218;28;20036;-59
2023/05/09 07:32:13;;;;;;;2.65;2.45;;;21.80;1.00;;;;;;5108923;28;20024;-60
2023/05/09 07:34:39;;;;;;;6.88;2.47;;;23.00;1.00;;;;;;5086714;28;20030;-59
2023/05/09 07:37:04;;;;;;;4.00;2.10;;;23.00;1.00;;;;;;5108716;28;20023;-60
2023/05/09 07:39:30;;;;;;;4.18;2.40;;;22.30;1.00;;;;;;5088991;28;20571;-60
2023/05/09 07:41:55;;;;;;;3.58;2.30;;;21.30;1.00;;;;;;5088199;28;20388;-59
2023/05/09 07:44:21;;;;;;;5.95;2.40;;;21.20;1.00;;;;;;5107909;28;20055;-59
2023/05/09 07:46:46;;;;;;;8.07;2.80;;;21.90;1.00;;;;;;5087152;28;20557;-60
2023/05/09 07:49:12;;;;;;;7.03;2.35;;;21.90;1.00;;;;;;5107840;28;20039;-60
2023/05/09 07:51:37;;;;;;;4.03;2.10;;;22.70;1.00;;;;;;5086930;28;20036;-60
2023/05/09 07:54:03;;;;;;;4.25;2.58;;;22.40;1.00;;;;;;5107801;28;20082;-60
2023/05/09 07:56:28;;;;;;;4.93;2.83;;;22.80;1.00;;;;;;5086853;28;20024;-60
2023/05/09 07:58:54;;;;;;;4.20;2.72;;;22.50;1.00;;;;;;5107690;28;20039;-59
2023/05/09 08:01:19;;;;;;;3.88;2.20;;;21.80;1.00;;;;;;5087255;28;20067;-60
2023/05/09 08:03:45;;;;;;;4.00;1.92;;;22.30;1.00;;;;;;5107773;28;20239;-60
2023/05/09 08:06:11;;;;;;;5.30;2.60;;;22.70;1.00;;;;;;5084957;28;20032;-59
2023/05/09 08:08:36;;;;;;;3.70;2.33;;;22.90;1.00;;;;;;5112279;28;20152;-59
2023/05/09 08:11:03;;;;;;;3.45;2.15;;;22.90;1.00;;;;;;5090430;28;20028;-59
2023/05/09 08:13:28;;;;;;;3.83;2.38;;;22.70;1.00;;;;;;5111464;28;20130;-59
2023/05/09 08:15:54;;;;;;;4.60;2.60;;;21.90;1.00;;;;;;5095005;28;20153;-60
2023/05/09 08:18:19;;;;;;;2.53;2.10;;;21.40;1.00;;;;;;5112363;28;20380;-60
2023/05/09 08:20:45;;;;;;;2.90;2.00;;;21.30;1.00;;;;;;5095511;28;20112;-60
2023/05/09 08:23:10;;;;;;;2.85;2.53;;;20.00;1.00;;;;;;5112150;28;20031;-60
2023/05/09 08:25:36;;;;;;;7.18;2.67;;;19.50;1.20;;;;;;5093588;28;20523;-60
2023/05/09 08:28:01;;;;;;;3.75;2.75;;;18.80;1.80;;;;;;5091601;28;20036;-59
2023/05/09 08:30:28;;;;;;;5.30;2.35;;;19.20;2.00;;;;;;5109688;28;20027;-59
2023/05/09 08:32:55;;;;;;;3.58;2.22;;;19.30;2.10;;;;;;5112068;28;20028;-59
2023/05/09 08:35:20;;;;;;;4.50;2.40;;;19.40;1.80;;;;;;5091869;28;20032;-59
2023/05/09 08:37:46;;;;;;;3.58;2.30;;;19.90;1.50;;;;;;5111883;28;20030;-60
2023/05/09 08:40:12;;;;;;;3.75;2.50;;;19.70;1.10;;;;;;5090524;28;20028;-59
2023/05/09 08:42:39;;;;;;;8.88;2.40;;;19.80;1.50;;;;;;5111716;28;20023;-60
2023/05/09 08:45:13;;;;;;;3.88;2.30;;;20.00;1.00;;;;;;5091767;28;20251;-59
2023/05/09 08:47:40;;;;;;;4.17;2.50;;;19.70;1.40;;;;;;5091378;28;20584;-60
2023/05/09 08:50:07;;;;;;;2.42;2.10;;;19.60;1.80;;;;;;5111014;28;20031;-59
2023/05/09 08:52:33;;;;;;;3.90;2.42;;;19.40;1.10;;;;;;5111666;28;20039;-60
2023/05/09 08:55:00;;;;;;;4.18;2.35;;;19.40;1.20;;;;;;5091475;28;20038;-60
2023/05/09 08:57:28;;;;;;;3.78;2.30;;;19.50;1.20;;;;;;5089533;28;20450;-60
2023/05/09 08:59:55;;;;;;;4.93;2.72;;;19.80;1.20;;;;;;5110286;28;20040;-60
2023/05/09 09:02:20;;;;;;;3.92;2.53;;;18.90;3.00;;;;;;5089723;28;20027;-60
2023/05/09 09:04:46;;;;;;;6.25;2.63;;;18.60;3.80;;;;;;5104568;28;20031;-59
2023/05/09 09:07:14;;;;;;;4.60;2.83;;;18.40;3.30;;;;;;5089116;28;20369;-60
2023/05/09 09:09:44;;;;;;;3.30;2.63;;;18.20;3.90;;;;;;5110785;28;20497;-60
2023/05/09 09:12:11;;;;;;;3.42;2.17;;;18.20;3.80;;;;;;5086003;28;20076;-60
2023/05/09 09:14:41;;;;;;;4.97;2.47;;;18.30;4.00;;;;;;5110458;28;20032;-60
2023/05/09 09:17:10;;;;;;;3.28;2.83;;;18.10;4.00;;;;;;5088848;28;20024;-59
2023/05/09 09:19:39;;;;;;;5.25;2.53;;;18.30;3.90;;;;;;5109623;28;20122;-59
2023/05/09 09:22:05;;;;;;;4.53;2.60;;;18.40;3.40;;;;;;5088915;28;20486;-59
2023/05/09 09:24:31;;;;;;;4.20;2.65;;;18.30;4.20;;;;;;5110254;28;20023;-59
2023/05/09 09:26:56;;;;;;;5.70;2.67;;;17.90;5.00;;;;;;5088973;28;20128;-59
2023/05/09 09:29:22;;;;;;;3.47;2.17;;;18.00;4.40;;;;;;5110098;28;20188;-59
2023/05/09 09:31:52;;;;;;;4.15;2.40;;;18.10;4.80;;;;;;5089218;28;20024;-59
2023/05/09 09:34:22;;;;;;;3.38;2.45;;;17.70;5.00;;;;;;5070212;28;20033;-59
2023/05/09 09:36:48;;;;;;;5.30;2.70;;;17.80;4.30;;;;;;5093758;28;20027;-59
2023/05/09 09:39:14;;;;;;;5.93;2.83;;;17.70;4.00;;;;;;5110003;28;20111;-59
2023/05/09 09:41:41;;;;;;;7.40;3.20;;;17.70;3.90;;;;;;5088627;28;20115;-59
2023/05/09 09:44:10;;;;;;;6.90;3.15;;;17.70;4.90;;;;;;5109749;28;20030;-59
2023/05/09 09:46:43;;;;;;;10.15;2.50;;;17.70;5.20;;;;;;5088737;28;20028;-59
2023/05/09 09:49:13;;;;;;;4.78;2.75;;;17.40;4.70;;;;;;5109830;28;20031;-59
2023/05/09 09:51:39;;;;;;;6.32;2.92;;;17.50;4.70;;;;;;5088391;28;20028;-59
2023/05/09 09:54:09;;;;;;;4.28;2.75;;;17.70;4.30;;;;;;5109511;28;20069;-59
2023/05/09 09:56:50;;;;;;;3.53;2.40;;;17.80;4.70;;;;;;5088337;28;20076;-59
2023/05/09 09:59:18;;;;;;;8.77;2.60;;;17.80;4.10;;;;;;5069665;28;20403;-59
2023/05/09 10:02:01;;;;;;;6.10;3.78;;;17.60;5.20;;;;;;5094081;28;20028;-59
2023/05/09 10:04:35;;;;;;;4.63;2.80;;;17.20;6.00;;;;;;5109737;28;20032;-59
2023/05/09 10:07:09;;;;;;;5.55;2.90;;;17.10;6.30;;;;;;5077713;28;20097;-59
2023/05/09 10:09:36;;;;;;;6.75;2.95;;;17.20;6.50;;;;;;5109629;28;20577;-59
2023/05/09 10:12:06;;;;;;;5.00;3.30;;;17.20;5.40;;;;;;5088085;28;20020;-59
2023/05/09 10:14:34;;;;;;;6.20;2.95;;;17.00;5.70;;;;;;5109709;28;20027;-59
2023/05/09 10:17:02;;;;;;;6.22;3.05;;;16.80;6.40;;;;;;5088073;28;20024;-59
2023/05/09 10:19:29;;;;;;;4.10;3.00;;;16.70;7.30;;;;;;5109656;28;20364;-59
2023/05/09 10:21:58;;;;;;;7.72;3.17;;;16.80;7.70;;;;;;5088127;28;20232;-59
2023/05/09 10:24:45;;;;;;;7.53;2.85;;;16.90;6.90;;;;;;5109540;28;20094;-59
2023/05/09 10:27:11;;;;;;;5.55;2.88;;;16.80;6.90;;;;;;5079805;28;20052;-59
2023/05/09 10:29:43;;;;;;;5.50;3.30;;;16.60;6.80;;;;;;5108122;28;20024;-59
2023/05/09 10:32:21;;;;;;;6.40;3.28;;;16.60;7.70;;;;;;5084372;28;20063;-59
2023/05/09 10:34:51;;;;;;;6.35;2.40;;;16.60;7.60;;;;;;5068955;28;20028;-59
2023/05/09 10:37:19;;;;;;;9.05;3.10;;;16.60;6.10;;;;;;5085297;28;20036;-59
2023/05/09 10:39:45;;;;;;;7.55;2.75;;;16.70;6.70;;;;;;5109063;28;20529;-59
2023/05/09 10:42:12;;;;;;;4.93;2.70;;;16.60;6.60;;;;;;5086166;28;20556;-59
2023/05/09 10:44:38;;;;;;;5.35;2.80;;;16.80;6.40;;;;;;5108742;28;20024;-59
2023/05/09 10:47:04;;;;;;;3.67;2.42;;;16.80;6.40;;;;;;5086417;28;20035;-59
2023/05/09 10:49:30;;;;;;;4.25;2.50;;;16.80;6.30;;;;;;5108669;28;20027;-59
2023/05/09 10:51:56;;;;;;;5.68;2.53;;;16.80;7.20;;;;;;5087661;28;20427;-58
2023/05/09 10:54:27;;;;;;;4.93;2.92;;;16.70;6.30;;;;;;5108414;28;20076;-59
2023/05/09 10:56:53;;;;;;;5.05;3.10;;;16.80;7.10;;;;;;5087191;28;20059;-59
2023/05/09 10:59:36;;;;;;;3.45;2.55;;;16.70;6.70;;;;;;5108490;28;20573;-59
2023/05/09 11:02:02;;;;;;;10.30;3.13;;;16.80;6.10;;;;;;5082789;28;20074;-59
2023/05/09 11:04:30;;;;;;;15.27;3.10;;;16.80;5.80;;;;;;5108615;28;20036;-59
2023/05/09 11:06:55;;;;;;;4.40;2.70;;;16.80;6.20;;;;;;5075839;28;20080;-59
2023/05/09 11:09:31;;;;;;;4.90;2.33;;;16.90;6.30;;;;;;5108247;28;20098;-59
2023/05/09 11:11:59;;;;;;;2.88;2.25;;;17.10;6.60;;;;;;5087339;28;20035;-59
2023/05/09 11:14:29;;;;;;;7.85;2.72;;;17.00;5.80;;;;;;5108462;28;20031;-59
2023/05/09 11:17:02;;;;;;;4.95;2.33;;;17.00;6.60;;;;;;5087080;28;20031;-58
2023/05/09 11:19:37;;;;;;;5.18;2.55;;;17.10;5.60;;;;;;5068573;28;20025;-59
2023/05/09 11:22:17;;;;;;;2.58;2.38;;;17.10;6.10;;;;;;5090511;28;20123;-59
2023/05/09 11:24:45;;;;;;;5.05;2.67;;;17.10;6.20;;;;;;5068280;28;20552;-58
2023/05/09 11:27:14;;;;;;;4.18;2.50;;;17.10;5.70;;;;;;5089685;28;20426;-59
2023/05/09 11:29:51;;;;;;;4.90;2.80;;;17.10;5.40;;;;;;5108542;28;20036;-59
2023/05/09 11:32:18;;;;;;;6.25;2.65;;;17.00;5.70;;;;;;5086988;28;20076;-59
2023/05/09 11:34:45;;;;;;;4.53;2.30;;;16.90;5.70;;;;;;5108218;28;20024;-59
2023/05/09 11:37:12;;;;;;;4.30;2.53;;;17.00;5.20;;;;;;5086955;28;20039;-59
2023/05/09 11:40:03;;;;;;;8.98;2.72;;;17.10;5.80;;;;;;5108061;28;20490;-59
2023/05/09 11:42:30;;;;;;;2.67;2.15;;;17.20;6.20;;;;;;5087910;28;20016;-59
2023/05/09 11:44:57;;;;;;;7.15;2.95;;;17.20;6.10;;;;;;5112066;28;20167;-58
2023/05/09 11:47:23;;;;;;;5.70;2.30;;;17.30;6.00;;;;;;5090999;27;20028;-59
2023/05/09 11:49:48;;;;;;;3.03;2.67;;;17.20;5.80;;;;;;5112371;28;20284;-59
2023/05/09 11:52:18;;;;;;;4.22;2.72;;;17.30;6.20;;;;;;5090878;28;20153;-59
2023/05/09 11:54:43;;;;;;;4.97;2.53;;;17.30;6.70;;;;;;5112515;28;20031;-59
2023/05/09 11:57:09;;;;;;;4.93;2.20;;;17.40;6.40;;;;;;5090969;27;20034;-59
2023/05/09 11:59:37;;;;;;;4.55;2.55;;;17.40;5.70;;;;;;5111754;28;20108;-59
2023/05/09 12:02:06;;;;;;;3.45;2.53;;;17.40;6.70;;;;;;5090583;28;20032;-59
2023/05/09 12:04:32;;;;;;;7.72;2.72;;;17.50;5.70;;;;;;5110968;28;20055;-57
2023/05/09 12:06:59;;;;;;;9.02;2.88;;;17.40;5.60;;;;;;5084252;28;20506;-59
2023/05/09 12:09:37;;;;;;;3.67;2.20;;;17.30;5.40;;;;;;5111788;28;20067;-59
2023/05/09 12:12:11;;;;;;;7.72;2.42;;;17.40;5.10;;;;;;5086156;28;20035;-59
2023/05/09 12:14:37;;;;;;;4.13;2.55;;;17.40;5.40;;;;;;5071589;28;20027;-59
2023/05/09 12:17:02;;;;;;;5.32;2.28;;;17.50;5.60;;;;;;5092921;28;20317;-59
2023/05/09 12:19:28;;;;;;;3.65;2.60;;;17.50;5.40;;;;;;5111747;28;20292;-59
2023/05/09 12:21:56;;;;;;;5.00;2.83;;;17.50;5.50;;;;;;5090459;28;20097;-58
2023/05/09 12:24:22;;;;;;;6.80;2.38;;;17.50;5.10;;;;;;5111702;28;20034;-58
2023/05/09 12:26:49;;;;;;;3.90;2.75;;;17.40;5.20;;;;;;5090467;28;20037;-59
2023/05/09 12:29:15;;;;;;;4.93;2.40;;;17.40;5.40;;;;;;5111385;28;20083;-59
2023/05/09 12:31:41;;;;;;;4.38;2.70;;;17.50;5.70;;;;;;5090022;28;20035;-59
2023/05/09 12:34:08;;;;;;;6.30;2.75;;;17.50;5.20;;;;;;5111002;28;20023;-59
2023/05/09 12:36:35;;;;;;;6.28;2.85;;;17.60;5.20;;;;;;5089801;28;20531;-59
2023/05/09 12:39:00;;;;;;;3.63;2.30;;;17.60;5.30;;;;;;5111184;28;20042;-59
2023/05/09 12:41:27;;;;;;;5.97;2.90;;;17.70;5.60;;;;;;5099592;28;20040;-59
2023/05/09 12:43:53;;;;;;;3.50;2.33;;;17.70;5.40;;;;;;5090165;28;20022;-58
2023/05/09 12:46:20;;;;;;;4.88;2.67;;;17.80;5.80;;;;;;5108996;28;20031;-59
2023/05/09 12:48:48;;;;;;;5.30;2.38;;;17.90;5.40;;;;;;5091592;28;20024;-59
2023/05/09 12:51:19;;;;;;;7.78;2.72;;;18.00;5.10;;;;;;5109325;28;20042;-59
2023/05/09 12:53:45;;;;;;;4.63;2.60;;;18.00;4.90;;;;;;5091198;28;20028;-59
2023/05/09 12:56:12;;;;;;;8.57;2.88;;;17.90;5.20;;;;;;5108685;28;20080;-59